sensor_id;sensor_type;location;lat;lon;timestamp;temperature;humidity
6666;DHT22;3369;49.906;8.598;2023-08-01T00:00:48;16.80;99.90
6666;DHT22;3369;49.906;8.598;2023-08-01T00:03:13;16.70;99.90
6666;DHT22;3369;49.906;8.598;2023-08-01T00:05:40;16.70;99.90
6666;DHT22;3369;49.906;8.598;2023-08-01T00:08:10;16.70;99.90
6666;DHT22;3369;49.906;8.598;2023-08-01T00:10:37;16.70;99.90
6666;DHT22;3369;49.906;8.598;2023-08-01T00:13:03;16.70;99.90
6666;DHT22;3369;49.906;8.598;2023-08-01T00:15:28;16.70;99.90
6666;DHT22;3369;49.906;8.598;2023-08-01T00:17:54;16.70;99.90
6666;DHT22;3369;49.906;8.598;2023-08-01T00:20:19;16.70;99.90
6666;DHT22;3369;49.906;8.598;2023-08-01T00:22:45;16.70;99.90
6666;DHT22;3369;49.906;8.598;2023-08-01T00:25:11;16.70;99.90
6666;DHT22;3369;49.906;8.598;2023-08-01T00:27:36;16.60;99.90
6666;DHT22;3369;49.906;8.598;2023-08-01T00:30:02;16.70;99.90
6666;DHT22;3369;49.906;8.598;2023-08-01T00:32:28;16.70;99.90
6666;DHT22;3369;49.906;8.598;2023-08-01T00:34:53;16.70;99.90
6666;DHT22;3369;49.906;8.598;2023-08-01T00:37:19;16.70;99.90
6666;DHT22;3369;49.906;8.598;2023-08-01T00:39:44;16.70;99.90
6666;DHT22;3369;49.906;8.598;2023-08-01T00:42:10;16.60;99.90
6666;DHT22;3369;49.906;8.598;2023-08-01T00:44:35;16.60;99.90
6666;DHT22;3369;49.906;8.598;2023-08-01T00:47:01;16.60;99.90
6666;DHT22;3369;49.906;8.598;2023-08-01T00:49:27;16.60;99.90
6666;DHT22;3369;49.906;8.598;2023-08-01T00:51:53;16.60;99.90
6666;DHT22;3369;49.906;8.598;2023-08-01T00:54:18;16.60;99.90
6666;DHT22;3369;49.906;8.598;2023-08-01T00:56:44;16.60;99.90
6666;DHT22;3369;49.906;8.598;2023-08-01T00:59:12;16.60;99.90
6666;DHT22;3369;49.906;8.598;2023-08-01T01:01:38;16.60;99.90
6666;DHT22;3369;49.906;8.598;2023-08-01T01:04:04;16.60;99.90
6666;DHT22;3369;49.906;8.598;2023-08-01T01:06:41;16.60;99.90
6666;DHT22;3369;49.906;8.598;2023-08-01T01:09:16;16.50;99.90
6666;DHT22;3369;49.906;8.598;2023-08-01T01:11:42;16.50;99.90
6666;DHT22;3369;49.906;8.598;2023-08-01T01:14:07;16.50;99.90
6666;DHT22;3369;49.906;8.598;2023-08-01T01:16:33;16.50;99.90
6666;DHT22;3369;49.906;8.598;2023-08-01T01:18:58;16.50;99.90
6666;DHT22;3369;49.906;8.598;2023-08-01T01:21:24;16.50;99.90
6666;DHT22;3369;49.906;8.598;2023-08-01T01:23:50;16.50;99.90
6666;DHT22;3369;49.906;8.598;2023-08-01T01:26:17;16.50;99.90
6666;DHT22;3369;49.906;8.598;2023-08-01T01:28:48;16.50;99.90
6666;DHT22;3369;49.906;8.598;2023-08-01T01:31:14;16.50;99.90
6666;DHT22;3369;49.906;8.598;2023-08-01T01:33:40;16.50;99.90
6666;DHT22;3369;49.906;8.598;2023-08-01T01:36:06;16.50;99.90
6666;DHT22;3369;49.906;8.598;2023-08-01T01:38:32;16.60;99.90
6666;DHT22;3369;49.906;8.598;2023-08-01T01:40:57;16.50;99.90
6666;DHT22;3369;49.906;8.598;2023-08-01T01:43:23;16.50;99.90
6666;DHT22;3369;49.906;8.598;2023-08-01T01:45:48;16.50;99.90
6666;DHT22;3369;49.906;8.598;2023-08-01T01:48:14;16.60;99.90
6666;DHT22;3369;49.906;8.598;2023-08-01T01:50:40;16.60;99.90
6666;DHT22;3369;49.906;8.598;2023-08-01T01:53:05;16.60;99.90
6666;DHT22;3369;49.906;8.598;2023-08-01T01:55:31;16.60;99.90
6666;DHT22;3369;49.906;8.598;2023-08-01T01:57:56;16.50;99.90
6666;DHT22;3369;49.906;8.598;2023-08-01T02:00:22;16.60;99.90
6666;DHT22;3369;49.906;8.598;2023-08-01T02:02:47;16.60;99.90
6666;DHT22;3369;49.906;8.598;2023-08-01T02:05:13;16.60;99.90
6666;DHT22;3369;49.906;8.598;2023-08-01T02:07:38;16.60;99.90
6666;DHT22;3369;49.906;8.598;2023-08-01T02:10:04;16.60;99.90
6666;DHT22;3369;49.906;8.598;2023-08-01T02:12:30;16.60;99.90
6666;DHT22;3369;49.906;8.598;2023-08-01T02:14:57;16.60;99.90
6666;DHT22;3369;49.906;8.598;2023-08-01T02:17:23;16.60;99.90
6666;DHT22;3369;49.906;8.598;2023-08-01T02:19:49;16.60;99.90
6666;DHT22;3369;49.906;8.598;2023-08-01T02:22:15;16.60;99.90
6666;DHT22;3369;49.906;8.598;2023-08-01T02:24:40;16.60;99.90
6666;DHT22;3369;49.906;8.598;2023-08-01T02:27:06;16.60;99.90
6666;DHT22;3369;49.906;8.598;2023-08-01T02:29:31;16.70;99.90
6666;DHT22;3369;49.906;8.598;2023-08-01T02:31:57;16.60;99.90
6666;DHT22;3369;49.906;8.598;2023-08-01T02:34:22;16.60;99.90
6666;DHT22;3369;49.906;8.598;2023-08-01T02:36:48;16.70;99.90
6666;DHT22;3369;49.906;8.598;2023-08-01T02:39:14;16.60;99.90
6666;DHT22;3369;49.906;8.598;2023-08-01T02:41:39;16.60;99.90
6666;DHT22;3369;49.906;8.598;2023-08-01T02:44:05;16.70;99.90
6666;DHT22;3369;49.906;8.598;2023-08-01T02:46:30;16.70;99.90
6666;DHT22;3369;49.906;8.598;2023-08-01T02:48:56;16.70;99.90
6666;DHT22;3369;49.906;8.598;2023-08-01T02:51:22;16.70;99.90
6666;DHT22;3369;49.906;8.598;2023-08-01T02:53:47;16.60;99.90
6666;DHT22;3369;49.906;8.598;2023-08-01T02:56:13;16.70;99.90
6666;DHT22;3369;49.906;8.598;2023-08-01T02:58:39;16.70;99.90
6666;DHT22;3369;49.906;8.598;2023-08-01T03:01:08;16.70;99.90
6666;DHT22;3369;49.906;8.598;2023-08-01T03:03:38;16.70;99.90
6666;DHT22;3369;49.906;8.598;2023-08-01T03:06:04;16.70;99.90
6666;DHT22;3369;49.906;8.598;2023-08-01T03:08:30;16.70;99.90
6666;DHT22;3369;49.906;8.598;2023-08-01T03:10:56;16.70;99.90
6666;DHT22;3369;49.906;8.598;2023-08-01T03:13:22;16.70;99.90
6666;DHT22;3369;49.906;8.598;2023-08-01T03:15:47;16.70;99.90
6666;DHT22;3369;49.906;8.598;2023-08-01T03:18:13;16.70;99.90
6666;DHT22;3369;49.906;8.598;2023-08-01T03:20:39;16.70;99.90
6666;DHT22;3369;49.906;8.598;2023-08-01T03:23:05;16.70;99.90
6666;DHT22;3369;49.906;8.598;2023-08-01T03:25:30;16.70;99.90
6666;DHT22;3369;49.906;8.598;2023-08-01T03:27:56;16.70;99.90
6666;DHT22;3369;49.906;8.598;2023-08-01T03:30:22;16.70;99.90
6666;DHT22;3369;49.906;8.598;2023-08-01T03:32:48;16.80;99.90
6666;DHT22;3369;49.906;8.598;2023-08-01T03:35:14;16.70;99.90
6666;DHT22;3369;49.906;8.598;2023-08-01T03:37:40;16.80;99.90
6666;DHT22;3369;49.906;8.598;2023-08-01T03:40:06;16.80;99.90
6666;DHT22;3369;49.906;8.598;2023-08-01T03:42:36;16.80;99.90
6666;DHT22;3369;49.906;8.598;2023-08-01T03:45:02;16.80;99.90
6666;DHT22;3369;49.906;8.598;2023-08-01T03:47:28;16.80;99.90
6666;DHT22;3369;49.906;8.598;2023-08-01T03:49:53;16.80;99.90
6666;DHT22;3369;49.906;8.598;2023-08-01T03:52:19;16.70;99.90
6666;DHT22;3369;49.906;8.598;2023-08-01T03:54:45;16.70;99.90
6666;DHT22;3369;49.906;8.598;2023-08-01T03:57:11;16.80;99.90
6666;DHT22;3369;49.906;8.598;2023-08-01T03:59:37;16.80;99.90
6666;DHT22;3369;49.906;8.598;2023-08-01T04:02:02;16.80;99.90
6666;DHT22;3369;49.906;8.598;2023-08-01T04:04:28;16.70;99.90
6666;DHT22;3369;49.906;8.598;2023-08-01T04:06:55;16.70;99.90
6666;DHT22;3369;49.906;8.598;2023-08-01T04:09:20;16.80;99.90
6666;DHT22;3369;49.906;8.598;2023-08-01T04:11:46;16.70;99.90
6666;DHT22;3369;49.906;8.598;2023-08-01T04:14:12;16.70;99.90
6666;DHT22;3369;49.906;8.598;2023-08-01T04:16:37;16.70;99.90
6666;DHT22;3369;49.906;8.598;2023-08-01T04:19:03;16.70;99.90
6666;DHT22;3369;49.906;8.598;2023-08-01T04:21:28;16.70;99.90
6666;DHT22;3369;49.906;8.598;2023-08-01T04:23:54;16.80;99.90
6666;DHT22;3369;49.906;8.598;2023-08-01T04:26:19;16.80;99.90
6666;DHT22;3369;49.906;8.598;2023-08-01T04:28:46;16.80;99.90
6666;DHT22;3369;49.906;8.598;2023-08-01T04:31:14;16.80;99.90
6666;DHT22;3369;49.906;8.598;2023-08-01T04:33:40;16.80;99.90
6666;DHT22;3369;49.906;8.598;2023-08-01T04:36:06;16.80;99.90
6666;DHT22;3369;49.906;8.598;2023-08-01T04:38:31;16.80;99.90
6666;DHT22;3369;49.906;8.598;2023-08-01T04:40:57;16.80;99.90
6666;DHT22;3369;49.906;8.598;2023-08-01T04:43:23;16.70;99.90
6666;DHT22;3369;49.906;8.598;2023-08-01T04:45:48;16.80;99.90
6666;DHT22;3369;49.906;8.598;2023-08-01T04:48:14;16.70;99.90
6666;DHT22;3369;49.906;8.598;2023-08-01T04:50:39;16.80;99.90
6666;DHT22;3369;49.906;8.598;2023-08-01T04:53:05;16.70;99.90
6666;DHT22;3369;49.906;8.598;2023-08-01T04:55:31;16.70;99.90
6666;DHT22;3369;49.906;8.598;2023-08-01T04:57:57;16.70;99.90
6666;DHT22;3369;49.906;8.598;2023-08-01T05:00:23;16.70;99.90
6666;DHT22;3369;49.906;8.598;2023-08-01T05:02:49;16.70;99.90
6666;DHT22;3369;49.906;8.598;2023-08-01T05:05:14;16.70;99.90
6666;DHT22;3369;49.906;8.598;2023-08-01T05:07:41;16.70;99.90
6666;DHT22;3369;49.906;8.598;2023-08-01T05:10:07;16.60;99.90
6666;DHT22;3369;49.906;8.598;2023-08-01T05:12:33;16.60;99.90
6666;DHT22;3369;49.906;8.598;2023-08-01T05:14:58;16.60;99.90
6666;DHT22;3369;49.906;8.598;2023-08-01T05:17:24;16.60;99.90
6666;DHT22;3369;49.906;8.598;2023-08-01T05:19:49;16.60;99.90
6666;DHT22;3369;49.906;8.598;2023-08-01T05:22:15;16.60;99.90
6666;DHT22;3369;49.906;8.598;2023-08-01T05:24:41;16.60;99.90
6666;DHT22;3369;49.906;8.598;2023-08-01T05:27:06;16.50;99.90
6666;DHT22;3369;49.906;8.598;2023-08-01T05:29:32;16.60;99.90
6666;DHT22;3369;49.906;8.598;2023-08-01T05:31:58;16.50;99.90
6666;DHT22;3369;49.906;8.598;2023-08-01T05:34:23;16.50;99.90
6666;DHT22;3369;49.906;8.598;2023-08-01T05:36:49;16.40;99.90
6666;DHT22;3369;49.906;8.598;2023-08-01T05:39:16;16.40;99.90
6666;DHT22;3369;49.906;8.598;2023-08-01T05:41:42;16.30;99.90
6666;DHT22;3369;49.906;8.598;2023-08-01T05:44:07;16.20;99.90
6666;DHT22;3369;49.906;8.598;2023-08-01T05:46:33;16.20;99.90
6666;DHT22;3369;49.906;8.598;2023-08-01T05:48:59;16.20;99.90
6666;DHT22;3369;49.906;8.598;2023-08-01T05:51:24;16.20;99.90
6666;DHT22;3369;49.906;8.598;2023-08-01T05:53:50;16.20;99.90
6666;DHT22;3369;49.906;8.598;2023-08-01T05:56:16;16.20;99.90
6666;DHT22;3369;49.906;8.598;2023-08-01T05:58:41;16.20;99.90
6666;DHT22;3369;49.906;8.598;2023-08-01T06:01:07;16.20;99.90
6666;DHT22;3369;49.906;8.598;2023-08-01T06:03:34;16.20;99.90
6666;DHT22;3369;49.906;8.598;2023-08-01T06:06:00;16.20;99.90
6666;DHT22;3369;49.906;8.598;2023-08-01T06:08:25;16.20;99.90
6666;DHT22;3369;49.906;8.598;2023-08-01T06:10:51;16.20;99.90
6666;DHT22;3369;49.906;8.598;2023-08-01T06:13:17;16.20;99.90
6666;DHT22;3369;49.906;8.598;2023-08-01T06:15:42;16.20;99.90
6666;DHT22;3369;49.906;8.598;2023-08-01T06:18:08;16.20;99.90
6666;DHT22;3369;49.906;8.598;2023-08-01T06:20:33;16.10;99.90
6666;DHT22;3369;49.906;8.598;2023-08-01T06:22:59;16.20;99.90
6666;DHT22;3369;49.906;8.598;2023-08-01T06:25:24;16.20;99.90
6666;DHT22;3369;49.906;8.598;2023-08-01T06:27:50;16.20;99.90
6666;DHT22;3369;49.906;8.598;2023-08-01T06:30:16;16.20;99.90
6666;DHT22;3369;49.906;8.598;2023-08-01T06:32:41;16.20;99.90
6666;DHT22;3369;49.906;8.598;2023-08-01T06:35:07;16.20;99.90
6666;DHT22;3369;49.906;8.598;2023-08-01T06:37:33;16.20;99.90
6666;DHT22;3369;49.906;8.598;2023-08-01T06:39:58;16.30;99.90
6666;DHT22;3369;49.906;8.598;2023-08-01T06:42:25;16.30;99.90
6666;DHT22;3369;49.906;8.598;2023-08-01T06:44:50;16.30;99.90
6666;DHT22;3369;49.906;8.598;2023-08-01T06:47:16;16.40;99.90
6666;DHT22;3369;49.906;8.598;2023-08-01T06:49:41;16.30;99.90
6666;DHT22;3369;49.906;8.598;2023-08-01T06:52:07;16.40;99.90
6666;DHT22;3369;49.906;8.598;2023-08-01T06:54:33;16.40;99.90
6666;DHT22;3369;49.906;8.598;2023-08-01T06:56:58;16.40;99.90
6666;DHT22;3369;49.906;8.598;2023-08-01T06:59:25;16.40;99.90
6666;DHT22;3369;49.906;8.598;2023-08-01T07:01:51;16.40;99.90
6666;DHT22;3369;49.906;8.598;2023-08-01T07:04:16;16.40;99.90
6666;DHT22;3369;49.906;8.598;2023-08-01T07:06:42;16.40;99.90
6666;DHT22;3369;49.906;8.598;2023-08-01T07:09:08;16.50;99.90
6666;DHT22;3369;49.906;8.598;2023-08-01T07:11:33;16.50;99.90
6666;DHT22;3369;49.906;8.598;2023-08-01T07:13:59;16.50;99.90
6666;DHT22;3369;49.906;8.598;2023-08-01T07:16:25;16.50;99.90
6666;DHT22;3369;49.906;8.598;2023-08-01T07:18:50;16.50;99.90
6666;DHT22;3369;49.906;8.598;2023-08-01T07:21:16;16.50;99.90
6666;DHT22;3369;49.906;8.598;2023-08-01T07:23:42;16.50;99.90
6666;DHT22;3369;49.906;8.598;2023-08-01T07:26:08;16.50;99.90
6666;DHT22;3369;49.906;8.598;2023-08-01T07:28:34;16.50;99.90
6666;DHT22;3369;49.906;8.598;2023-08-01T07:31:05;16.50;99.90
6666;DHT22;3369;49.906;8.598;2023-08-01T07:33:31;16.60;99.90
6666;DHT22;3369;49.906;8.598;2023-08-01T07:35:57;16.60;99.90
6666;DHT22;3369;49.906;8.598;2023-08-01T07:38:23;16.60;99.90
6666;DHT22;3369;49.906;8.598;2023-08-01T07:40:49;16.60;99.90
6666;DHT22;3369;49.906;8.598;2023-08-01T07:43:15;16.60;99.90
6666;DHT22;3369;49.906;8.598;2023-08-01T07:45:40;16.60;99.90
6666;DHT22;3369;49.906;8.598;2023-08-01T07:48:06;16.60;99.90
6666;DHT22;3369;49.906;8.598;2023-08-01T07:50:32;16.60;99.90
6666;DHT22;3369;49.906;8.598;2023-08-01T07:52:57;16.70;99.90
6666;DHT22;3369;49.906;8.598;2023-08-01T07:55:23;16.60;99.90
6666;DHT22;3369;49.906;8.598;2023-08-01T07:57:49;16.60;99.90
6666;DHT22;3369;49.906;8.598;2023-08-01T08:00:15;16.60;99.90
6666;DHT22;3369;49.906;8.598;2023-08-01T08:02:44;16.60;99.90
6666;DHT22;3369;49.906;8.598;2023-08-01T08:05:10;16.70;99.90
6666;DHT22;3369;49.906;8.598;2023-08-01T08:07:37;16.70;99.90
6666;DHT22;3369;49.906;8.598;2023-08-01T08:10:06;16.80;99.90
6666;DHT22;3369;49.906;8.598;2023-08-01T08:12:32;16.80;99.90
6666;DHT22;3369;49.906;8.598;2023-08-01T08:14:58;16.90;99.90
6666;DHT22;3369;49.906;8.598;2023-08-01T08:17:23;17.10;99.90
6666;DHT22;3369;49.906;8.598;2023-08-01T08:19:49;17.30;99.90
6666;DHT22;3369;49.906;8.598;2023-08-01T08:22:15;17.40;99.90
6666;DHT22;3369;49.906;8.598;2023-08-01T08:24:40;17.70;99.90
6666;DHT22;3369;49.906;8.598;2023-08-01T08:27:06;17.80;99.90
6666;DHT22;3369;49.906;8.598;2023-08-01T08:29:32;18.00;99.90
6666;DHT22;3369;49.906;8.598;2023-08-01T08:31:58;18.10;99.90
6666;DHT22;3369;49.906;8.598;2023-08-01T08:34:23;18.30;99.90
6666;DHT22;3369;49.906;8.598;2023-08-01T08:36:49;18.50;99.90
6666;DHT22;3369;49.906;8.598;2023-08-01T08:39:16;18.60;99.90
6666;DHT22;3369;49.906;8.598;2023-08-01T08:41:46;18.70;99.90
6666;DHT22;3369;49.906;8.598;2023-08-01T08:44:16;18.70;99.90
6666;DHT22;3369;49.906;8.598;2023-08-01T08:46:44;18.70;99.90
6666;DHT22;3369;49.906;8.598;2023-08-01T08:49:10;18.70;99.90
6666;DHT22;3369;49.906;8.598;2023-08-01T08:51:37;18.80;99.90
6666;DHT22;3369;49.906;8.598;2023-08-01T08:54:07;18.80;99.90
6666;DHT22;3369;49.906;8.598;2023-08-01T08:56:34;18.90;99.90
6666;DHT22;3369;49.906;8.598;2023-08-01T08:59:00;19.00;99.90
6666;DHT22;3369;49.906;8.598;2023-08-01T09:01:26;19.10;99.90
6666;DHT22;3369;49.906;8.598;2023-08-01T09:03:52;19.20;99.90
6666;DHT22;3369;49.906;8.598;2023-08-01T09:06:24;19.40;99.90
6666;DHT22;3369;49.906;8.598;2023-08-01T09:08:51;19.50;99.90
6666;DHT22;3369;49.906;8.598;2023-08-01T09:11:20;19.60;99.90
6666;DHT22;3369;49.906;8.598;2023-08-01T09:13:47;19.60;99.90
6666;DHT22;3369;49.906;8.598;2023-08-01T09:16:14;19.60;99.90
6666;DHT22;3369;49.906;8.598;2023-08-01T09:18:50;19.60;99.90
6666;DHT22;3369;49.906;8.598;2023-08-01T09:21:20;19.50;99.90
6666;DHT22;3369;49.906;8.598;2023-08-01T09:23:46;19.40;99.90
6666;DHT22;3369;49.906;8.598;2023-08-01T09:26:15;19.30;99.90
6666;DHT22;3369;49.906;8.598;2023-08-01T09:28:41;19.30;99.90
6666;DHT22;3369;49.906;8.598;2023-08-01T09:31:07;19.40;99.90
6666;DHT22;3369;49.906;8.598;2023-08-01T09:33:40;19.50;99.90
6666;DHT22;3369;49.906;8.598;2023-08-01T09:36:07;19.70;99.90
6666;DHT22;3369;49.906;8.598;2023-08-01T09:38:37;19.90;99.90
6666;DHT22;3369;49.906;8.598;2023-08-01T09:41:04;20.00;99.90
6666;DHT22;3369;49.906;8.598;2023-08-01T09:43:36;20.10;99.90
6666;DHT22;3369;49.906;8.598;2023-08-01T09:46:03;20.20;99.90
6666;DHT22;3369;49.906;8.598;2023-08-01T09:48:30;20.20;99.90
6666;DHT22;3369;49.906;8.598;2023-08-01T09:51:09;20.10;99.90
6666;DHT22;3369;49.906;8.598;2023-08-01T09:53:36;20.10;99.90
6666;DHT22;3369;49.906;8.598;2023-08-01T09:56:12;20.10;99.90
6666;DHT22;3369;49.906;8.598;2023-08-01T09:58:42;20.00;99.90
6666;DHT22;3369;49.906;8.598;2023-08-01T10:01:08;20.00;99.90
6666;DHT22;3369;49.906;8.598;2023-08-01T10:03:34;20.10;99.90
6666;DHT22;3369;49.906;8.598;2023-08-01T10:06:00;20.40;99.90
6666;DHT22;3369;49.906;8.598;2023-08-01T10:08:29;20.60;99.90
6666;DHT22;3369;49.906;8.598;2023-08-01T10:10:54;20.90;99.90
6666;DHT22;3369;49.906;8.598;2023-08-01T10:13:23;21.10;99.90
6666;DHT22;3369;49.906;8.598;2023-08-01T10:15:53;21.30;99.90
6666;DHT22;3369;49.906;8.598;2023-08-01T10:18:19;21.40;99.90
6666;DHT22;3369;49.906;8.598;2023-08-01T10:20:46;21.20;99.90
6666;DHT22;3369;49.906;8.598;2023-08-01T10:23:12;21.20;99.90
6666;DHT22;3369;49.906;8.598;2023-08-01T10:25:39;21.20;99.90
6666;DHT22;3369;49.906;8.598;2023-08-01T10:28:06;21.40;99.90
6666;DHT22;3369;49.906;8.598;2023-08-01T10:30:32;21.60;99.90
6666;DHT22;3369;49.906;8.598;2023-08-01T10:32:59;21.70;99.90
6666;DHT22;3369;49.906;8.598;2023-08-01T10:35:37;21.80;99.90
6666;DHT22;3369;49.906;8.598;2023-08-01T10:38:08;21.80;99.90
6666;DHT22;3369;49.906;8.598;2023-08-01T10:40:40;21.80;99.90
6666;DHT22;3369;49.906;8.598;2023-08-01T10:43:18;22.00;99.90
6666;DHT22;3369;49.906;8.598;2023-08-01T10:45:44;22.00;99.90
6666;DHT22;3369;49.906;8.598;2023-08-01T10:48:10;21.90;99.90
6666;DHT22;3369;49.906;8.598;2023-08-01T10:50:36;21.80;99.90
6666;DHT22;3369;49.906;8.598;2023-08-01T10:53:05;21.70;99.90
6666;DHT22;3369;49.906;8.598;2023-08-01T10:55:45;21.50;99.90
6666;DHT22;3369;49.906;8.598;2023-08-01T10:58:12;21.40;99.90
6666;DHT22;3369;49.906;8.598;2023-08-01T11:00:38;21.40;99.90
6666;DHT22;3369;49.906;8.598;2023-08-01T11:03:04;21.30;99.90
6666;DHT22;3369;49.906;8.598;2023-08-01T11:05:30;21.20;99.90
6666;DHT22;3369;49.906;8.598;2023-08-01T11:07:57;21.20;99.90
6666;DHT22;3369;49.906;8.598;2023-08-01T11:10:25;21.30;99.90
6666;DHT22;3369;49.906;8.598;2023-08-01T11:12:51;21.40;99.90
6666;DHT22;3369;49.906;8.598;2023-08-01T11:15:17;21.50;99.90
6666;DHT22;3369;49.906;8.598;2023-08-01T11:17:47;21.60;99.90
6666;DHT22;3369;49.906;8.598;2023-08-01T11:20:13;21.60;99.90
6666;DHT22;3369;49.906;8.598;2023-08-01T11:22:55;21.80;99.90
6666;DHT22;3369;49.906;8.598;2023-08-01T11:25:36;21.90;99.90
6666;DHT22;3369;49.906;8.598;2023-08-01T11:28:10;21.90;98.80
6666;DHT22;3369;49.906;8.598;2023-08-01T11:30:36;21.80;98.00
6666;DHT22;3369;49.906;8.598;2023-08-01T11:33:13;21.80;98.60
6666;DHT22;3369;49.906;8.598;2023-08-01T11:35:40;21.60;98.30
6666;DHT22;3369;49.906;8.598;2023-08-01T11:38:06;21.60;98.70
6666;DHT22;3369;49.906;8.598;2023-08-01T11:40:32;21.60;98.70
6666;DHT22;3369;49.906;8.598;2023-08-01T11:42:58;21.60;98.80
6666;DHT22;3369;49.906;8.598;2023-08-01T11:45:24;21.70;98.70
6666;DHT22;3369;49.906;8.598;2023-08-01T11:47:50;21.80;96.90
6666;DHT22;3369;49.906;8.598;2023-08-01T11:50:24;21.80;97.30
6666;DHT22;3369;49.906;8.598;2023-08-01T11:52:50;21.90;96.90
6666;DHT22;3369;49.906;8.598;2023-08-01T11:55:21;21.90;96.70
6666;DHT22;3369;49.906;8.598;2023-08-01T11:57:57;21.90;96.80
6666;DHT22;3369;49.906;8.598;2023-08-01T12:00:28;21.90;96.70
6666;DHT22;3369;49.906;8.598;2023-08-01T12:03:09;21.90;96.60
6666;DHT22;3369;49.906;8.598;2023-08-01T12:05:40;21.80;95.60
6666;DHT22;3369;49.906;8.598;2023-08-01T12:08:14;21.80;96.20
6666;DHT22;3369;49.906;8.598;2023-08-01T12:10:48;21.80;96.40
6666;DHT22;3369;49.906;8.598;2023-08-01T12:13:24;21.90;96.90
6666;DHT22;3369;49.906;8.598;2023-08-01T12:15:54;21.90;96.80
6666;DHT22;3369;49.906;8.598;2023-08-01T12:18:28;21.90;96.10
6666;DHT22;3369;49.906;8.598;2023-08-01T12:20:54;21.90;96.50
6666;DHT22;3369;49.906;8.598;2023-08-01T12:23:20;22.00;96.40
6666;DHT22;3369;49.906;8.598;2023-08-01T12:25:47;22.00;96.70
6666;DHT22;3369;49.906;8.598;2023-08-01T12:28:16;22.00;95.70
6666;DHT22;3369;49.906;8.598;2023-08-01T12:30:42;22.00;94.60
6666;DHT22;3369;49.906;8.598;2023-08-01T12:33:09;22.10;95.20
6666;DHT22;3369;49.906;8.598;2023-08-01T12:35:38;22.20;95.70
6666;DHT22;3369;49.906;8.598;2023-08-01T12:38:04;22.30;96.00
6666;DHT22;3369;49.906;8.598;2023-08-01T12:40:29;22.50;96.50
6666;DHT22;3369;49.906;8.598;2023-08-01T12:42:55;22.80;96.80
6666;DHT22;3369;49.906;8.598;2023-08-01T12:45:21;23.00;96.60
6666;DHT22;3369;49.906;8.598;2023-08-01T12:47:48;23.10;95.10
6666;DHT22;3369;49.906;8.598;2023-08-01T12:50:13;23.30;94.50
6666;DHT22;3369;49.906;8.598;2023-08-01T12:52:39;23.40;94.40
6666;DHT22;3369;49.906;8.598;2023-08-01T12:55:05;23.40;93.40
6666;DHT22;3369;49.906;8.598;2023-08-01T12:57:30;23.40;93.50
6666;DHT22;3369;49.906;8.598;2023-08-01T12:59:56;23.40;92.50
6666;DHT22;3369;49.906;8.598;2023-08-01T13:02:22;23.30;92.20
6666;DHT22;3369;49.906;8.598;2023-08-01T13:04:47;23.30;93.10
6666;DHT22;3369;49.906;8.598;2023-08-01T13:07:13;23.30;93.10
6666;DHT22;3369;49.906;8.598;2023-08-01T13:09:39;23.40;92.50
6666;DHT22;3369;49.906;8.598;2023-08-01T13:12:05;23.50;92.20
6666;DHT22;3369;49.906;8.598;2023-08-01T13:14:31;23.60;92.00
6666;DHT22;3369;49.906;8.598;2023-08-01T13:16:57;23.60;92.10
6666;DHT22;3369;49.906;8.598;2023-08-01T13:19:24;23.70;92.70
6666;DHT22;3369;49.906;8.598;2023-08-01T13:21:50;23.60;92.50
6666;DHT22;3369;49.906;8.598;2023-08-01T13:24:16;23.50;92.20
6666;DHT22;3369;49.906;8.598;2023-08-01T13:26:42;23.40;92.60
6666;DHT22;3369;49.906;8.598;2023-08-01T13:29:07;23.40;92.90
6666;DHT22;3369;49.906;8.598;2023-08-01T13:31:33;23.30;92.60
6666;DHT22;3369;49.906;8.598;2023-08-01T13:33:59;23.20;92.00
6666;DHT22;3369;49.906;8.598;2023-08-01T13:36:24;23.00;92.10
6666;DHT22;3369;49.906;8.598;2023-08-01T13:38:50;22.90;91.70
6666;DHT22;3369;49.906;8.598;2023-08-01T13:41:16;22.70;92.60
6666;DHT22;3369;49.906;8.598;2023-08-01T13:43:42;22.70;92.90
6666;DHT22;3369;49.906;8.598;2023-08-01T13:46:12;22.80;92.60
6666;DHT22;3369;49.906;8.598;2023-08-01T13:48:39;22.90;91.70
6666;DHT22;3369;49.906;8.598;2023-08-01T13:51:04;23.00;92.20
6666;DHT22;3369;49.906;8.598;2023-08-01T13:53:30;23.20;92.90
6666;DHT22;3369;49.906;8.598;2023-08-01T13:55:55;23.20;93.20
6666;DHT22;3369;49.906;8.598;2023-08-01T13:58:21;23.20;93.70
6666;DHT22;3369;49.906;8.598;2023-08-01T14:00:47;23.30;93.60
6666;DHT22;3369;49.906;8.598;2023-08-01T14:03:12;23.20;93.80
6666;DHT22;3369;49.906;8.598;2023-08-01T14:05:38;23.10;93.70
6666;DHT22;3369;49.906;8.598;2023-08-01T14:08:04;23.00;93.80
6666;DHT22;3369;49.906;8.598;2023-08-01T14:10:30;22.90;93.80
6666;DHT22;3369;49.906;8.598;2023-08-01T14:12:56;22.70;94.30
6666;DHT22;3369;49.906;8.598;2023-08-01T14:15:21;22.60;94.90
6666;DHT22;3369;49.906;8.598;2023-08-01T14:17:47;22.40;95.60
6666;DHT22;3369;49.906;8.598;2023-08-01T14:20:13;22.20;98.40
6666;DHT22;3369;49.906;8.598;2023-08-01T14:22:40;21.90;99.50
6666;DHT22;3369;49.906;8.598;2023-08-01T14:25:06;21.50;99.90
6666;DHT22;3369;49.906;8.598;2023-08-01T14:27:32;21.10;99.90
6666;DHT22;3369;49.906;8.598;2023-08-01T14:29:58;20.80;99.90
6666;DHT22;3369;49.906;8.598;2023-08-01T14:32:23;20.40;99.90
6666;DHT22;3369;49.906;8.598;2023-08-01T14:34:49;20.20;99.90
6666;DHT22;3369;49.906;8.598;2023-08-01T14:37:15;20.10;99.90
6666;DHT22;3369;49.906;8.598;2023-08-01T14:39:40;20.00;99.90
6666;DHT22;3369;49.906;8.598;2023-08-01T14:42:06;19.90;99.90
6666;DHT22;3369;49.906;8.598;2023-08-01T14:44:32;19.80;99.90
6666;DHT22;3369;49.906;8.598;2023-08-01T14:46:57;19.60;99.90
6666;DHT22;3369;49.906;8.598;2023-08-01T14:49:23;19.50;99.90
6666;DHT22;3369;49.906;8.598;2023-08-01T14:51:52;19.20;99.90
6666;DHT22;3369;49.906;8.598;2023-08-01T14:54:18;19.00;99.90
6666;DHT22;3369;49.906;8.598;2023-08-01T14:56:44;18.90;99.90
6666;DHT22;3369;49.906;8.598;2023-08-01T14:59:10;18.80;99.90
6666;DHT22;3369;49.906;8.598;2023-08-01T15:01:35;18.70;99.90
6666;DHT22;3369;49.906;8.598;2023-08-01T15:04:01;18.70;99.90
6666;DHT22;3369;49.906;8.598;2023-08-01T15:06:27;18.70;99.90
6666;DHT22;3369;49.906;8.598;2023-08-01T15:08:52;18.70;99.90
6666;DHT22;3369;49.906;8.598;2023-08-01T15:11:18;18.80;99.90
6666;DHT22;3369;49.906;8.598;2023-08-01T15:13:44;18.80;99.90
6666;DHT22;3369;49.906;8.598;2023-08-01T15:16:10;18.90;99.90
6666;DHT22;3369;49.906;8.598;2023-08-01T15:18:40;19.00;99.90
6666;DHT22;3369;49.906;8.598;2023-08-01T15:21:06;19.20;99.90
6666;DHT22;3369;49.906;8.598;2023-08-01T15:23:33;19.30;99.90
6666;DHT22;3369;49.906;8.598;2023-08-01T15:25:59;19.50;99.90
6666;DHT22;3369;49.906;8.598;2023-08-01T15:28:25;19.70;99.90
6666;DHT22;3369;49.906;8.598;2023-08-01T15:31:08;19.80;99.90
6666;DHT22;3369;49.906;8.598;2023-08-01T15:33:36;19.90;99.90
6666;DHT22;3369;49.906;8.598;2023-08-01T15:36:03;19.80;99.90
6666;DHT22;3369;49.906;8.598;2023-08-01T15:38:33;19.80;99.90
6666;DHT22;3369;49.906;8.598;2023-08-01T15:40:59;19.70;99.90
6666;DHT22;3369;49.906;8.598;2023-08-01T15:43:32;19.70;99.90
6666;DHT22;3369;49.906;8.598;2023-08-01T15:45:58;19.40;99.90
6666;DHT22;3369;49.906;8.598;2023-08-01T15:48:24;19.00;99.90
6666;DHT22;3369;49.906;8.598;2023-08-01T15:50:50;18.70;99.90
6666;DHT22;3369;49.906;8.598;2023-08-01T15:53:15;18.50;99.90
6666;DHT22;3369;49.906;8.598;2023-08-01T15:55:41;18.30;99.90
6666;DHT22;3369;49.906;8.598;2023-08-01T15:58:07;18.10;99.90